Time;durP1;ratioP1;P1;durP2;ratioP2;P2;SDS_P1;SDS_P2;PMS_P1;PMS_P2;Temp;Humidity;BMP_temperature;BMP_pressure;BME280_temperature;BME280_humidity;BME280_pressure;Samples;Min_cycle;Max_cycle;Signal;HPM_P1;HPM_P2
2023/05/27 00:02:01;;;;;;;15.38;11.80;;;410.50;2355.20;;;;;;5035688;28;20124;-82
2023/05/27 00:04:27;;;;;;;17.17;11.68;;;410.50;2355.20;;;;;;5036286;28;20036;-82
2023/05/27 00:06:53;;;;;;;13.77;11.88;;;410.50;2355.20;;;;;;5033140;28;20191;-82
2023/05/27 00:09:19;;;;;;;17.83;12.32;;;410.30;2355.20;;;;;;5033550;28;20048;-83
2023/05/27 00:11:44;;;;;;;14.35;12.02;;;410.30;2355.20;;;;;;5036498;28;20461;-82
2023/05/27 00:14:10;;;;;;;12.82;11.32;;;410.30;2355.20;;;;;;5036221;28;20040;-82
2023/05/27 00:16:36;;;;;;;17.70;11.75;;;410.30;2355.20;;;;;;5036221;28;20032;-82
2023/05/27 00:19:03;;;;;;;12.38;10.82;;;410.30;2355.20;;;;;;5035824;28;20025;-82
2023/05/27 00:21:28;;;;;;;13.90;11.43;;;410.40;2355.20;;;;;;5035928;28;20040;-81
2023/05/27 00:23:57;;;;;;;17.27;12.32;;;410.50;2355.20;;;;;;5036074;28;20021;-81
2023/05/27 00:26:23;;;;;;;16.60;12.82;;;410.40;2355.20;;;;;;5035549;28;20021;-82
2023/05/27 00:28:49;;;;;;;14.05;12.30;;;410.30;2355.20;;;;;;5035598;28;20063;-82
2023/05/27 00:31:15;;;;;;;14.57;12.25;;;410.30;2355.20;;;;;;5036460;28;20053;-81
2023/05/27 00:33:43;;;;;;;15.77;12.27;;;410.30;2355.20;;;;;;5036884;28;20056;-81
2023/05/27 00:36:09;;;;;;;13.45;11.65;;;410.30;2355.20;;;;;;5036654;28;20025;-82
2023/05/27 00:38:36;;;;;;;14.55;11.10;;;410.30;2355.20;;;;;;5036509;28;20025;-82
2023/05/27 00:41:03;;;;;;;14.98;12.52;;;410.30;2355.20;;;;;;5035137;28;20397;-82
2023/05/27 00:43:32;;;;;;;16.90;13.45;;;410.10;2355.20;;;;;;5036577;28;20178;-81
2023/05/27 00:45:58;;;;;;;17.83;13.48;;;410.00;2355.20;;;;;;5035531;28;20102;-82
2023/05/27 00:48:25;;;;;;;16.25;13.07;;;410.10;2355.20;;;;;;5036410;28;20543;-81
2023/05/27 00:50:51;;;;;;;16.80;13.18;;;410.10;2355.20;;;;;;5036555;28;20049;-82
2023/05/27 00:53:17;;;;;;;22.17;13.18;;;410.00;2355.20;;;;;;5035354;28;20025;-81
2023/05/27 00:55:43;;;;;;;18.52;13.30;;;410.00;2355.20;;;;;;5035091;28;20021;-81
2023/05/27 00:58:09;;;;;;;20.70;14.00;;;410.00;2355.20;;;;;;5035210;28;20022;-80
2023/05/27 01:00:38;;;;;;;16.50;13.20;;;410.00;2355.20;;;;;;5034873;28;20060;-81
2023/05/27 01:03:06;;;;;;;19.48;14.20;;;410.00;2355.20;;;;;;5036505;28;20044;-81
2023/05/27 01:05:33;;;;;;;19.33;13.88;;;410.10;2355.20;;;;;;5035164;28;20088;-82
2023/05/27 01:08:05;;;;;;;17.05;14.23;;;410.00;2355.20;;;;;;5038126;28;20452;-81
2023/05/27 01:10:47;;;;;;;20.42;13.85;;;409.70;2355.20;;;;;;5038369;28;20389;-81
2023/05/27 01:13:25;;;;;;;16.88;13.20;;;409.60;2355.20;;;;;;5038351;28;20110;-81
2023/05/27 01:15:53;;;;;;;18.75;12.98;;;409.70;2355.20;;;;;;5038049;28;20455;-81
2023/05/27 01:18:22;;;;;;;19.08;13.35;;;410.10;2355.20;;;;;;5038271;28;20029;-81
2023/05/27 01:20:51;;;;;;;14.60;12.73;;;409.90;2355.20;;;;;;5039223;28;20041;-78
2023/05/27 01:23:17;;;;;;;17.92;11.88;;;409.90;2355.20;;;;;;5041339;28;20132;-79
2023/05/27 01:25:43;;;;;;;16.73;11.60;;;409.80;2355.20;;;;;;5040879;28;20373;-77
2023/05/27 01:28:09;;;;;;;16.73;12.07;;;409.90;2355.20;;;;;;5041812;28;20025;-79
2023/05/27 01:30:35;;;;;;;18.95;12.52;;;409.80;2355.20;;;;;;5058315;28;20029;-75
2023/05/27 01:33:07;;;;;;;16.08;12.80;;;409.80;2355.20;;;;;;5039892;28;20036;-75
2023/05/27 01:35:52;;;;;;;18.10;12.10;;;409.80;2355.20;;;;;;5057898;28;20025;-76
2023/05/27 01:38:21;;;;;;;17.02;11.55;;;409.70;2355.20;;;;;;5038426;28;20029;-79
2023/05/27 01:40:48;;;;;;;16.67;12.60;;;409.80;2355.20;;;;;;5037610;28;20033;-83
2023/05/27 01:43:15;;;;;;;14.20;11.98;;;384.90;2329.60;;;;;;5037553;28;20029;-80
2023/05/27 01:45:41;;;;;;;15.93;12.45;;;409.60;2355.20;;;;;;5037894;28;20025;-79
2023/05/27 01:48:09;;;;;;;16.30;12.73;;;409.70;2355.20;;;;;;5037681;28;20460;-79
2023/05/27 01:50:35;;;;;;;18.65;11.57;;;409.60;2355.20;;;;;;5037350;28;20384;-81
2023/05/27 01:53:03;;;;;;;18.23;12.25;;;409.70;2355.20;;;;;;5037691;28;20468;-79
2023/05/27 01:55:30;;;;;;;17.00;13.32;;;409.70;2355.20;;;;;;5037269;28;20035;-82
2023/05/27 01:57:56;;;;;;;16.17;12.93;;;409.70;2355.20;;;;;;5037274;28;20087;-81
2023/05/27 02:00:22;;;;;;;14.98;12.25;;;409.70;2355.20;;;;;;5055197;28;20025;-82
2023/05/27 02:02:48;;;;;;;15.32;13.27;;;384.90;2329.60;;;;;;5037233;28;20029;-82
2023/05/27 02:05:14;;;;;;;19.55;12.93;;;409.60;2355.20;;;;;;5037014;28;20350;-81
2023/05/27 02:07:40;;;;;;;18.27;12.88;;;409.60;2355.20;;;;;;5055115;28;20457;-82
2023/05/27 02:10:06;;;;;;;19.27;14.05;;;409.60;2355.20;;;;;;5037180;28;20029;-82
2023/05/27 02:12:32;;;;;;;18.27;11.88;;;384.90;2329.60;;;;;;5036373;28;20068;-82
2023/05/27 02:14:58;;;;;;;19.52;12.52;;;384.70;2329.60;;;;;;5037036;28;20063;-81
2023/05/27 02:17:27;;;;;;;17.20;13.07;;;384.90;2329.60;;;;;;5036925;28;20033;-82
2023/05/27 02:19:54;;;;;;;15.32;13.57;;;384.70;2329.60;;;;;;5054809;28;20029;-82
2023/05/27 02:22:21;;;;;;;15.35;12.43;;;384.70;2329.60;;;;;;5054359;28;20033;-79
2023/05/27 02:24:47;;;;;;;18.88;13.13;;;384.80;2329.60;;;;;;5036900;28;20025;-79
2023/05/27 02:27:13;;;;;;;18.00;13.90;;;384.70;2329.60;;;;;;5036456;28;20373;-81
2023/05/27 02:29:38;;;;;;;16.50;13.32;;;384.70;2329.60;;;;;;5036759;28;20098;-81
2023/05/27 02:32:05;;;;;;;17.42;13.77;;;384.70;2329.60;;;;;;5036490;28;20029;-81
2023/05/27 02:34:31;;;;;;;16.77;13.77;;;384.70;2329.60;;;;;;5036314;28;20036;-81
2023/05/27 02:36:57;;;;;;;16.23;12.82;;;384.70;2329.60;;;;;;5036749;28;20079;-81
2023/05/27 02:39:23;;;;;;;15.25;12.30;;;384.90;2329.60;;;;;;5034076;28;20060;-81
2023/05/27 02:41:49;;;;;;;16.58;12.65;;;384.70;2329.60;;;;;;5036003;28;20037;-80
2023/05/27 02:44:14;;;;;;;18.67;12.80;;;384.40;2329.60;;;;;;5036744;28;20375;-80
2023/05/27 02:46:40;;;;;;;18.00;12.05;;;384.70;2329.60;;;;;;5035000;28;20116;-80
2023/05/27 02:49:06;;;;;;;20.08;12.75;;;384.60;2329.60;;;;;;5034839;28;20025;-80
2023/05/27 02:51:32;;;;;;;16.83;11.32;;;384.60;2329.60;;;;;;5036123;28;20029;-81
2023/05/27 02:53:57;;;;;;;17.30;12.60;;;384.70;2329.60;;;;;;5052713;28;20025;-81
2023/05/27 02:56:25;;;;;;;15.70;12.40;;;384.70;2329.60;;;;;;5036314;28;20029;-81
2023/05/27 02:58:51;;;;;;;16.88;12.07;;;384.40;2329.60;;;;;;5058078;28;20051;-80
2023/05/27 03:01:17;;;;;;;16.65;11.18;;;384.60;2329.60;;;;;;5054598;28;20033;-83
2023/05/27 03:03:43;;;;;;;15.38;11.27;;;384.70;2329.60;;;;;;5053715;28;20031;-82
2023/05/27 03:06:24;;;;;;;16.70;11.48;;;384.60;2329.60;;;;;;5071089;28;20396;-82
2023/05/27 03:08:50;;;;;;;16.27;12.82;;;384.70;2329.60;;;;;;5069835;28;20529;-82
2023/05/27 03:11:15;;;;;;;16.08;10.50;;;384.60;2329.60;;;;;;5069990;28;20033;-82
2023/05/27 03:13:41;;;;;;;21.08;13.18;;;384.30;2329.60;;;;;;5070001;28;20021;-82
2023/05/27 03:16:07;;;;;;;18.10;13.02;;;384.40;2329.60;;;;;;5069768;28;20039;-81
2023/05/27 03:18:33;;;;;;;13.70;11.88;;;384.40;2329.60;;;;;;5069744;28;20491;-82
2023/05/27 03:20:58;;;;;;;15.43;12.38;;;384.30;2329.60;;;;;;5069655;28;20112;-82
2023/05/27 03:23:24;;;;;;;16.92;11.88;;;384.40;2329.60;;;;;;5069644;28;20052;-82
2023/05/27 03:25:50;;;;;;;18.27;13.00;;;384.40;2329.60;;;;;;5069746;28;20036;-82
2023/05/27 03:28:16;;;;;;;20.92;15.48;;;384.40;2329.60;;;;;;5069375;28;20032;-82
2023/05/27 03:30:43;;;;;;;24.00;15.85;;;384.40;2329.60;;;;;;5069014;28;20033;-82
2023/05/27 03:33:09;;;;;;;25.05;18.40;;;384.30;2329.60;;;;;;5068359;28;20421;-82
2023/05/27 03:35:35;;;;;;;27.38;18.70;;;384.00;2329.60;;;;;;5069177;28;20028;-81
2023/05/27 03:38:01;;;;;;;25.90;17.42;;;359.10;2329.60;;;;;;5069534;28;20158;-81
2023/05/27 03:40:26;;;;;;;25.27;18.00;;;359.20;2329.60;;;;;;5071152;28;20036;-81
2023/05/27 03:42:53;;;;;;;22.88;16.10;;;359.20;2329.60;;;;;;5069056;28;20052;-81
2023/05/27 03:45:19;;;;;;;25.60;16.95;;;359.30;2329.60;;;;;;5069454;28;20427;-81
2023/05/27 03:47:45;;;;;;;25.85;17.02;;;384.00;2329.60;;;;;;5069290;28;20029;-81
2023/05/27 03:50:11;;;;;;;26.42;16.08;;;384.00;2329.60;;;;;;5069104;28;20464;-79
2023/05/27 03:52:36;;;;;;;20.20;15.10;;;384.10;2329.60;;;;;;5068835;28;20465;-81
2023/05/27 03:55:02;;;;;;;25.20;16.58;;;384.00;2329.60;;;;;;5069136;28;20033;-81
2023/05/27 03:57:28;;;;;;;20.92;15.68;;;359.30;2329.60;;;;;;5070040;28;20059;-81
2023/05/27 03:59:54;;;;;;;21.00;15.27;;;384.10;2329.60;;;;;;5069012;28;20067;-82
2023/05/27 04:02:20;;;;;;;18.15;13.85;;;384.20;2329.60;;;;;;5070076;28;20371;-81
2023/05/27 04:04:46;;;;;;;24.08;15.52;;;384.30;2329.60;;;;;;5069328;28;20468;-81
2023/05/27 04:07:13;;;;;;;22.52;15.63;;;384.10;2329.60;;;;;;5068854;28;20120;-81
2023/05/27 04:09:38;;;;;;;22.77;15.57;;;359.30;2329.60;;;;;;5068800;28;20025;-81
2023/05/27 04:12:06;;;;;;;21.77;15.88;;;359.30;2329.60;;;;;;5068532;28;20517;-81
2023/05/27 04:14:32;;;;;;;23.35;15.38;;;384.40;2329.60;;;;;;5068710;28;20033;-81
2023/05/27 04:16:58;;;;;;;24.70;16.00;;;384.30;2329.60;;;;;;5059227;28;20060;-81
2023/05/27 04:19:23;;;;;;;24.02;16.88;;;384.20;2329.60;;;;;;5055679;28;20244;-80
2023/05/27 04:21:49;;;;;;;23.52;17.20;;;384.10;2329.60;;;;;;5056978;28;20028;-82
2023/05/27 04:24:15;;;;;;;23.50;16.90;;;359.10;2329.60;;;;;;5055112;28;21948;-81
2023/05/27 04:26:41;;;;;;;25.23;18.08;;;359.30;2329.60;;;;;;5056600;28;20089;-82
2023/05/27 04:29:09;;;;;;;29.73;19.48;;;359.20;2329.60;;;;;;5056516;28;20476;-81
2023/05/27 04:31:36;;;;;;;22.15;16.77;;;359.20;2329.60;;;;;;5055060;28;20040;-80
2023/05/27 04:34:02;;;;;;;27.45;18.55;;;359.30;2329.60;;;;;;5055033;28;20031;-81
2023/05/27 04:36:32;;;;;;;25.73;17.70;;;384.10;2329.60;;;;;;5055183;28;20530;-81
2023/05/27 04:39:01;;;;;;;28.17;17.67;;;384.10;2329.60;;;;;;5055995;28;20461;-81
2023/05/27 04:41:28;;;;;;;25.95;18.13;;;384.30;2329.60;;;;;;5055049;28;20120;-81
2023/05/27 04:43:57;;;;;;;19.45;16.33;;;384.40;2329.60;;;;;;5054791;28;20024;-81
2023/05/27 04:46:24;;;;;;;23.02;17.38;;;384.50;2329.60;;;;;;5054613;28;20124;-80
2023/05/27 04:48:52;;;;;;;26.90;16.88;;;384.80;2329.60;;;;;;5055699;28;20452;-80
2023/05/27 04:51:19;;;;;;;21.27;14.38;;;384.70;2329.60;;;;;;5054629;28;20116;-82
2023/05/27 04:53:47;;;;;;;21.00;16.15;;;384.80;2329.60;;;;;;5054373;28;20465;-82
2023/05/27 04:56:15;;;;;;;21.98;16.98;;;409.60;2355.20;;;;;;5054419;28;20124;-82
2023/05/27 04:58:43;;;;;;;19.40;16.00;;;409.70;2355.20;;;;;;5054419;28;20491;-82
2023/05/27 05:01:16;;;;;;;24.33;16.98;;;409.70;2355.20;;;;;;5054345;28;20120;-82
2023/05/27 05:03:52;;;;;;;21.88;16.00;;;384.90;2329.60;;;;;;5054631;28;20055;-82
2023/05/27 05:06:19;;;;;;;22.23;15.95;;;409.70;2355.20;;;;;;5053939;28;20045;-83
2023/05/27 05:08:45;;;;;;;20.60;16.25;;;409.80;2355.20;;;;;;5055775;28;20021;-82
2023/05/27 05:11:11;;;;;;;25.00;18.05;;;409.90;2355.20;;;;;;5054855;28;20086;-81
2023/05/27 05:13:36;;;;;;;22.35;17.00;;;409.80;2355.20;;;;;;5054061;28;20060;-81
2023/05/27 05:16:02;;;;;;;23.30;17.25;;;409.80;2355.20;;;;;;5054368;28;20040;-81
2023/05/27 05:18:28;;;;;;;23.92;17.92;;;409.60;2355.20;;;;;;5054010;28;20028;-82
2023/05/27 05:20:54;;;;;;;23.95;16.02;;;409.70;2355.20;;;;;;5054104;28;20119;-82
2023/05/27 05:23:20;;;;;;;28.35;17.85;;;409.80;2355.20;;;;;;5054287;28;20492;-81
2023/05/27 05:25:47;;;;;;;22.65;17.45;;;409.90;2355.20;;;;;;5054052;28;20068;-81
2023/05/27 05:28:12;;;;;;;24.73;17.90;;;409.80;2355.20;;;;;;5053046;28;20028;-82
2023/05/27 05:30:39;;;;;;;22.65;16.45;;;409.80;2355.20;;;;;;5055389;28;20376;-82
2023/05/27 05:33:04;;;;;;;27.38;17.95;;;409.90;2355.20;;;;;;5054912;28;20032;-82
2023/05/27 05:35:30;;;;;;;22.10;16.25;;;409.90;2355.20;;;;;;5053756;28;20420;-82
2023/05/27 05:37:56;;;;;;;22.75;16.58;;;410.20;2355.20;;;;;;5054113;28;20027;-82
2023/05/27 05:40:23;;;;;;;22.70;16.85;;;410.10;2355.20;;;;;;5036604;28;20022;-83
2023/05/27 05:42:49;;;;;;;22.60;17.48;;;410.30;2355.20;;;;;;5035000;28;20029;-83
2023/05/27 05:45:14;;;;;;;20.25;15.98;;;410.30;2355.20;;;;;;5033761;28;20034;-82
2023/05/27 05:47:40;;;;;;;21.48;15.82;;;410.30;2355.20;;;;;;5034014;28;20399;-82
2023/05/27 05:50:06;;;;;;;24.85;15.93;;;410.50;2355.20;;;;;;5034938;28;20026;-83
2023/05/27 05:52:32;;;;;;;22.13;15.95;;;410.50;2355.20;;;;;;5034465;28;20026;-83
2023/05/27 05:54:58;;;;;;;20.52;14.85;;;435.20;2355.20;;;;;;5035348;28;20033;-83
2023/05/27 05:57:24;;;;;;;19.15;14.80;;;435.40;2355.20;;;;;;5035689;28;20033;-78
2023/05/27 05:59:50;;;;;;;21.13;15.05;;;435.50;2355.20;;;;;;5034069;28;20037;-82
2023/05/27 06:02:16;;;;;;;18.85;14.57;;;435.60;2355.20;;;;;;5033593;28;20025;-82
2023/05/27 06:04:41;;;;;;;15.98;13.13;;;435.60;2355.20;;;;;;5034551;28;20060;-82
2023/05/27 06:07:07;;;;;;;14.98;13.07;;;435.70;2355.20;;;;;;5033953;28;20028;-82
2023/05/27 06:09:33;;;;;;;18.67;13.43;;;435.80;2355.20;;;;;;5033442;28;20028;-81
2023/05/27 06:11:59;;;;;;;16.98;13.05;;;435.90;2355.20;;;;;;5033446;28;20124;-82
2023/05/27 06:14:24;;;;;;;14.93;12.68;;;436.10;2355.20;;;;;;5033734;28;20033;-84
2023/05/27 06:16:50;;;;;;;15.95;13.20;;;460.80;2380.80;;;;;;5033304;28;20021;-83
2023/05/27 06:19:16;;;;;;;16.75;14.95;;;460.90;2380.80;;;;;;5033231;28;20033;-85
2023/05/27 06:21:42;;;;;;;12.93;9.75;;;461.10;2380.80;;;;;;5037222;28;20026;-84
2023/05/27 06:24:07;;;;;;;12.40;9.43;;;461.20;2380.80;;;;;;5048743;28;20039;-84
2023/05/27 06:26:33;;;;;;;12.02;9.95;;;461.30;2380.80;;;;;;5044133;28;20465;-84
2023/05/27 06:28:59;;;;;;;11.75;8.82;;;461.40;2380.80;;;;;;5033312;28;20431;-83
2023/05/27 06:31:26;;;;;;;12.05;9.23;;;461.50;2380.80;;;;;;5033045;28;20063;-84
2023/05/27 06:33:53;;;;;;;12.18;9.40;;;461.60;2380.80;;;;;;5033049;28;20429;-84
2023/05/27 06:36:18;;;;;;;10.80;9.35;;;486.40;2380.80;;;;;;5033042;28;20025;-84
2023/05/27 06:38:44;;;;;;;12.13;9.45;;;486.40;2380.80;;;;;;5032660;28;20034;-84
2023/05/27 06:41:10;;;;;;;10.75;8.70;;;486.40;2380.80;;;;;;5032831;28;20049;-83
2023/05/27 06:43:36;;;;;;;14.77;10.25;;;486.40;2380.80;;;;;;5034008;28;20026;-84
2023/05/27 06:46:02;;;;;;;10.23;8.77;;;486.50;2380.80;;;;;;5032723;28;20030;-83
2023/05/27 06:48:28;;;;;;;11.43;8.57;;;486.70;2380.80;;;;;;5037167;28;20115;-84
2023/05/27 06:50:53;;;;;;;13.25;8.65;;;486.70;2380.80;;;;;;5068474;28;20631;-82
2023/05/27 06:53:19;;;;;;;10.55;9.05;;;486.80;2380.80;;;;;;5069239;28;20044;-82
2023/05/27 06:55:46;;;;;;;10.70;9.10;;;486.90;2380.80;;;;;;5069291;28;20083;-82
2023/05/27 06:58:11;;;;;;;12.25;9.05;;;487.00;2380.80;;;;;;5068939;28;20052;-85
2023/05/27 07:00:37;;;;;;;12.40;10.13;;;486.90;2380.80;;;;;;5069159;28;20049;-85
2023/05/27 07:03:03;;;;;;;12.20;9.77;;;486.90;2380.80;;;;;;5052663;28;20025;-83
2023/05/27 07:05:29;;;;;;;12.25;8.93;;;486.90;2380.80;;;;;;5068816;28;20464;-82
2023/05/27 07:07:55;;;;;;;13.48;11.40;;;486.90;2380.80;;;;;;5069468;28;20124;-83
2023/05/27 07:10:20;;;;;;;11.85;10.15;;;486.90;2380.80;;;;;;5053759;28;20040;-83
2023/05/27 07:12:46;;;;;;;13.40;10.52;;;486.90;2380.80;;;;;;5052291;28;20029;-83
2023/05/27 07:15:12;;;;;;;10.38;9.30;;;487.00;2380.80;;;;;;5052336;28;20159;-82
2023/05/27 07:17:38;;;;;;;11.68;10.02;;;487.00;2380.80;;;;;;5067558;28;20025;-83
2023/05/27 07:20:05;;;;;;;11.48;8.40;;;487.00;2380.80;;;;;;5053045;28;20037;-84
2023/05/27 07:22:30;;;;;;;11.32;10.13;;;487.10;2380.80;;;;;;5069093;28;20053;-83
2023/05/27 07:24:57;;;;;;;12.25;9.25;;;487.10;2380.80;;;;;;5052000;28;20114;-83
2023/05/27 07:27:22;;;;;;;12.70;9.77;;;487.20;2380.80;;;;;;5053620;28;20021;-83
2023/05/27 07:29:48;;;;;;;12.18;10.20;;;487.30;2380.80;;;;;;5069526;28;20055;-83
2023/05/27 07:32:14;;;;;;;12.32;11.00;;;487.30;2380.80;;;;;;5053603;28;20037;-83
2023/05/27 07:34:40;;;;;;;14.27;10.32;;;512.00;2380.80;;;;;;5052083;28;20033;-84
2023/05/27 07:37:06;;;;;;;14.10;10.93;;;512.10;2380.80;;;;;;5053821;28;20018;-83
2023/05/27 07:39:31;;;;;;;12.48;10.05;;;512.10;2380.80;;;;;;5053596;28;20096;-83
2023/05/27 07:41:57;;;;;;;11.98;10.75;;;512.20;2380.80;;;;;;5051979;28;20453;-83
2023/05/27 07:44:23;;;;;;;11.98;9.43;;;512.20;2380.80;;;;;;5051988;28;20519;-83
2023/05/27 07:46:49;;;;;;;11.25;9.90;;;512.30;2380.80;;;;;;5069110;28;20036;-84
2023/05/27 07:49:15;;;;;;;10.70;9.60;;;512.30;2380.80;;;;;;5053464;28;20079;-82
2023/05/27 07:51:41;;;;;;;11.88;10.52;;;512.30;2380.80;;;;;;5054613;28;20020;-83
2023/05/27 07:54:07;;;;;;;11.20;9.85;;;512.40;2380.80;;;;;;5055622;28;20384;-83
2023/05/27 07:56:34;;;;;;;11.52;10.15;;;512.50;2380.80;;;;;;5072836;28;20424;-83
2023/05/27 07:59:00;;;;;;;14.48;11.00;;;512.50;2380.80;;;;;;5055443;28;20029;-83
2023/05/27 08:01:30;;;;;;;12.82;10.45;;;512.50;2380.80;;;;;;5055464;28;20036;-83
2023/05/27 08:03:56;;;;;;;13.30;9.90;;;512.70;2380.80;;;;;;5055928;28;20052;-83
2023/05/27 08:06:22;;;;;;;12.77;10.73;;;512.60;2380.80;;;;;;5071159;28;20224;-84
2023/05/27 08:08:47;;;;;;;12.07;10.90;;;512.90;2380.80;;;;;;5056631;28;20061;-83
2023/05/27 08:11:13;;;;;;;12.70;10.63;;;537.60;2406.40;;;;;;5057269;28;20460;-83
2023/05/27 08:13:39;;;;;;;12.43;10.90;;;537.70;2406.40;;;;;;5054352;28;20035;-82
2023/05/27 08:16:05;;;;;;;13.00;10.65;;;537.70;2406.40;;;;;;5056055;28;20452;-83
2023/05/27 08:18:32;;;;;;;12.38;11.07;;;537.70;2406.40;;;;;;5057034;28;20025;-83
2023/05/27 08:20:58;;;;;;;12.23;10.75;;;537.60;2406.40;;;;;;5057167;28;20032;-83
2023/05/27 08:23:25;;;;;;;14.15;10.88;;;537.60;2406.40;;;;;;5056210;28;20130;-82
2023/05/27 08:25:50;;;;;;;12.00;10.80;;;537.60;2406.40;;;;;;5059094;28;20292;-83
2023/05/27 08:28:16;;;;;;;12.65;10.93;;;537.60;2406.40;;;;;;5069558;28;20033;-83
2023/05/27 08:30:42;;;;;;;12.82;10.70;;;537.60;2406.40;;;;;;5066960;28;20029;-81
2023/05/27 08:33:08;;;;;;;14.07;12.15;;;537.70;2406.40;;;;;;5068156;28;20084;-82
2023/05/27 08:35:34;;;;;;;18.02;11.55;;;537.70;2406.40;;;;;;5060454;28;20114;-83
2023/05/27 08:38:00;;;;;;;14.38;11.68;;;537.70;2406.40;;;;;;5056288;28;20060;-83
2023/05/27 08:40:26;;;;;;;16.83;12.00;;;537.80;2406.40;;;;;;5055153;28;20028;-83
2023/05/27 08:42:52;;;;;;;15.57;13.40;;;537.70;2406.40;;;;;;5055274;28;20047;-81
2023/05/27 08:45:17;;;;;;;14.70;12.88;;;537.90;2406.40;;;;;;5054184;28;20456;-84
2023/05/27 08:47:44;;;;;;;15.52;12.88;;;537.90;2406.40;;;;;;5054200;28;20468;-83
2023/05/27 08:50:10;;;;;;;17.20;13.18;;;537.60;2406.40;;;;;;5056369;28;20059;-83
2023/05/27 08:52:47;;;;;;;23.42;12.88;;;537.80;2406.40;;;;;;5055856;28;20028;-83
2023/05/27 08:55:17;;;;;;;15.35;13.43;;;537.70;2406.40;;;;;;5055352;28;20385;-83
2023/05/27 08:57:49;;;;;;;18.90;14.00;;;537.60;2406.40;;;;;;5054785;28;20079;-83
2023/05/27 09:00:15;;;;;;;16.08;12.95;;;537.70;2406.40;;;;;;5055226;28;20519;-81
2023/05/27 09:02:41;;;;;;;15.35;13.40;;;537.80;2406.40;;;;;;5054761;28;20029;-83
2023/05/27 09:05:09;;;;;;;19.80;14.25;;;537.90;2406.40;;;;;;5054335;28;20063;-83
2023/05/27 09:07:36;;;;;;;15.07;13.50;;;537.90;2406.40;;;;;;5054250;28;20124;-83
2023/05/27 09:10:02;;;;;;;17.20;13.88;;;538.00;2406.40;;;;;;5054494;28;20021;-83
2023/05/27 09:12:28;;;;;;;15.48;12.25;;;538.00;2406.40;;;;;;5054990;28;20032;-83
2023/05/27 09:14:54;;;;;;;15.77;13.80;;;538.00;2406.40;;;;;;5056181;28;20032;-82
2023/05/27 09:17:23;;;;;;;13.93;12.25;;;538.10;2406.40;;;;;;5055035;28;20567;-82
2023/05/27 09:19:53;;;;;;;16.77;14.98;;;538.20;2406.40;;;;;;5055424;28;20025;-83
2023/05/27 09:22:30;;;;;;;13.02;11.63;;;563.50;2432.00;;;;;;5055762;28;20483;-82
2023/05/27 09:24:56;;;;;;;14.18;11.73;;;563.50;2432.00;;;;;;5054544;28;20393;-82
2023/05/27 09:27:32;;;;;;;16.35;11.77;;;563.60;2432.00;;;;;;5054568;28;20033;-83
2023/05/27 09:30:09;;;;;;;13.70;11.38;;;563.80;2432.00;;;;;;5054298;28;20060;-84
2023/05/27 09:32:34;;;;;;;12.82;10.95;;;564.00;2432.00;;;;;;5054339;28;20029;-81
2023/05/27 09:35:01;;;;;;;11.80;10.13;;;563.80;2432.00;;;;;;5054215;28;20128;-82
2023/05/27 09:37:34;;;;;;;13.50;10.68;;;563.80;2432.00;;;;;;5054402;28;20432;-82
2023/05/27 09:40:12;;;;;;;12.93;10.30;;;563.90;2432.00;;;;;;5054229;28;20025;-81
2023/05/27 09:42:48;;;;;;;11.50;10.30;;;588.90;2432.00;;;;;;5055043;28;20025;-82
2023/05/27 09:45:21;;;;;;;12.77;10.43;;;588.90;2432.00;;;;;;5058207;28;20025;-81
2023/05/27 09:47:52;;;;;;;11.63;10.43;;;564.10;2432.00;;;;;;5078619;28;20013;-85
2023/05/27 09:50:20;;;;;;;13.65;10.95;;;589.00;2432.00;;;;;;5057276;28;20464;-82
2023/05/27 09:52:49;;;;;;;11.88;10.60;;;589.50;2432.00;;;;;;5054674;28;20020;-83
2023/05/27 09:55:17;;;;;;;11.27;10.15;;;589.70;2432.00;;;;;;5054955;28;20056;-83
2023/05/27 09:57:44;;;;;;;11.23;9.43;;;614.40;2432.00;;;;;;5053315;28;20104;-84
2023/05/27 10:00:12;;;;;;;13.68;10.77;;;589.70;2432.00;;;;;;5054787;28;20021;-83
2023/05/27 10:02:42;;;;;;;13.90;11.10;;;589.70;2432.00;;;;;;5054887;28;20051;-84
2023/05/27 10:05:12;;;;;;;12.10;10.25;;;589.60;2432.00;;;;;;5053556;28;20073;-85
2023/05/27 10:07:39;;;;;;;11.48;10.20;;;589.60;2432.00;;;;;;5053685;28;20129;-83
2023/05/27 10:10:12;;;;;;;10.93;9.82;;;589.70;2432.00;;;;;;5053343;28;20028;-83
2023/05/27 10:12:39;;;;;;;13.90;10.63;;;589.70;2432.00;;;;;;5054623;28;20021;-83
2023/05/27 10:15:06;;;;;;;13.88;10.88;;;589.60;2432.00;;;;;;5052728;28;20037;-84
2023/05/27 10:17:42;;;;;;;11.82;10.63;;;589.50;2432.00;;;;;;5053766;28;20024;-83
2023/05/27 10:20:09;;;;;;;11.65;10.35;;;589.60;2432.00;;;;;;5049713;28;20025;-82
2023/05/27 10:22:47;;;;;;;11.82;9.48;;;589.70;2432.00;;;;;;5034364;28;20029;-84
2023/05/27 10:25:13;;;;;;;14.15;11.20;;;589.70;2432.00;;;;;;5033411;28;20036;-84
2023/05/27 10:27:46;;;;;;;12.52;11.23;;;614.50;2432.00;;;;;;5033543;28;20022;-84
2023/05/27 10:30:14;;;;;;;13.63;9.73;;;614.80;2432.00;;;;;;5033245;28;20026;-88
2023/05/27 10:32:49;;;;;;;16.42;11.23;;;615.20;2432.00;;;;;;5034525;28;20025;-86
2023/05/27 10:35:18;;;;;;;13.52;9.93;;;615.30;2432.00;;;;;;5032863;28;20515;-83
2023/05/27 10:37:46;;;;;;;10.75;9.65;;;640.20;2432.00;;;;;;5032956;28;20034;-84
2023/05/27 10:40:12;;;;;;;13.30;11.23;;;640.50;2432.00;;;;;;5034026;28;20021;-85
2023/05/27 10:42:38;;;;;;;12.63;9.05;;;640.50;2432.00;;;;;;5032872;28;20021;-84
2023/05/27 10:45:10;;;;;;;10.77;9.55;;;640.70;2432.00;;;;;;5032803;28;20060;-84
2023/05/27 10:47:37;;;;;;;10.57;9.05;;;640.50;2432.00;;;;;;5032543;28;20049;-84
2023/05/27 10:50:15;;;;;;;11.15;8.88;;;640.50;2432.00;;;;;;5032307;28;20032;-84
2023/05/27 10:52:42;;;;;;;13.75;10.07;;;640.20;2432.00;;;;;;5032893;28;20121;-85
2023/05/27 10:55:08;;;;;;;10.70;9.52;;;640.70;2432.00;;;;;;5032660;28;20041;-84
2023/05/27 10:57:35;;;;;;;12.32;10.30;;;640.30;2432.00;;;;;;5032421;28;20091;-85
2023/05/27 11:00:08;;;;;;;11.55;10.35;;;640.20;2432.00;;;;;;5033870;28;20072;-84
2023/05/27 11:02:37;;;;;;;11.50;9.48;;;640.10;2432.00;;;;;;5035181;28;20026;-82
2023/05/27 11:05:14;;;;;;;13.15;11.70;;;640.60;2432.00;;;;;;5031797;28;20071;-84
2023/05/27 11:07:40;;;;;;;12.63;10.13;;;640.60;2432.00;;;;;;5032597;28;20036;-82
2023/05/27 11:10:08;;;;;;;12.23;10.93;;;665.70;2432.00;;;;;;5032054;28;20079;-83
2023/05/27 11:12:33;;;;;;;10.82;9.73;;;666.10;2432.00;;;;;;5033895;28;20028;-85
2023/05/27 11:14:59;;;;;;;13.07;10.20;;;666.30;2406.40;;;;;;5032466;28;20461;-83
2023/05/27 11:17:25;;;;;;;13.40;10.93;;;666.50;2380.80;;;;;;5032696;28;20025;-83
2023/05/27 11:19:52;;;;;;;11.23;9.68;;;691.30;2355.20;;;;;;5032633;28;20034;-84
2023/05/27 11:22:19;;;;;;;11.55;9.98;;;691.50;2329.60;;;;;;5033610;28;20021;-83
2023/05/27 11:25:05;;;;;;;12.90;11.07;;;691.60;2304.00;;;;;;5033229;28;20030;-81
2023/05/27 11:27:39;;;;;;;10.93;9.63;;;691.60;2278.40;;;;;;5035510;28;20025;-84
2023/05/27 11:30:09;;;;;;;12.88;10.70;;;691.70;2252.80;;;;;;5037448;28;20026;-81
2023/05/27 11:32:36;;;;;;;15.65;13.35;;;691.70;2304.00;;;;;;5035773;28;20017;-83
2023/05/27 11:35:02;;;;;;;12.73;10.95;;;691.70;2304.00;;;;;;5036484;28;20060;-83
2023/05/27 11:37:37;;;;;;;13.35;11.95;;;691.90;2304.00;;;;;;5036720;28;20480;-80
2023/05/27 11:40:11;;;;;;;12.05;10.73;;;692.00;2278.40;;;;;;5034996;28;20029;-81
2023/05/27 11:42:37;;;;;;;13.05;11.32;;;691.90;2278.40;;;;;;5036053;28;20025;-81
2023/05/27 11:45:06;;;;;;;14.45;11.70;;;691.40;2278.40;;;;;;5035686;28;20475;-80
2023/05/27 11:47:32;;;;;;;14.20;12.25;;;666.50;2329.60;;;;;;5032839;28;20029;-79
2023/05/27 11:49:58;;;;;;;15.82;12.77;;;691.20;2329.60;;;;;;5035634;28;20048;-80
2023/05/27 11:52:27;;;;;;;14.20;12.70;;;691.30;2380.80;;;;;;5035659;28;20056;-80
2023/05/27 11:54:52;;;;;;;15.30;13.63;;;691.20;2329.60;;;;;;5035621;28;20060;-81
2023/05/27 11:57:18;;;;;;;15.88;14.13;;;691.40;2329.60;;;;;;5035664;28;20037;-82
2023/05/27 11:59:44;;;;;;;17.48;14.90;;;691.40;2329.60;;;;;;5035348;28;20057;-81
2023/05/27 12:02:10;;;;;;;17.40;14.55;;;666.50;2355.20;;;;;;5035800;28;20425;-82